createdAt,value
2022-12-26T00:00:37.470Z,-5.70
2022-12-26T00:03:04.431Z,-5.70
2022-12-26T00:05:36.439Z,-5.70
2022-12-26T00:08:03.812Z,-5.70
2022-12-26T00:10:30.582Z,-5.80
2022-12-26T00:13:37.642Z,-5.80
2022-12-26T00:15:44.293Z,-5.80
2022-12-26T00:18:11.124Z,-5.80
2022-12-26T00:20:37.953Z,-5.80
2022-12-26T00:23:04.720Z,-5.70
2022-12-26T00:25:34.456Z,-5.60
2022-12-26T00:28:01.629Z,-5.60
2022-12-26T00:30:28.593Z,-5.60
2022-12-26T00:32:55.836Z,-5.60
2022-12-26T00:35:22.796Z,-5.60
2022-12-26T00:37:49.654Z,-5.50
2022-12-26T00:40:17.811Z,-5.40
2022-12-26T00:42:44.634Z,-5.40
2022-12-26T00:45:11.421Z,-5.30
2022-12-26T00:47:38.207Z,-5.20
2022-12-26T00:50:11.733Z,-5.20
2022-12-26T00:52:43.630Z,-5.20
2022-12-26T00:55:10.833Z,-5.20
2022-12-26T00:57:37.655Z,-5.20
2022-12-26T01:00:05.701Z,-5.20
2022-12-26T01:02:38.552Z,-5.10
2022-12-26T01:05:09.515Z,-5.00
2022-12-26T01:08:21.886Z,-5.00
2022-12-26T01:10:23.895Z,-5.00
2022-12-26T01:12:51.343Z,-5.00
2022-12-26T01:15:19.038Z,-5.00
2022-12-26T01:17:46.036Z,-4.90
2022-12-26T01:20:14.676Z,-4.90
2022-12-26T01:22:41.528Z,-4.90
2022-12-26T01:25:10.155Z,-4.80
2022-12-26T01:27:36.937Z,-4.80
2022-12-26T01:30:04.909Z,-4.80
2022-12-26T01:32:31.619Z,-4.70
2022-12-26T01:34:58.478Z,-4.60
2022-12-26T01:37:25.505Z,-4.50
2022-12-26T01:39:52.579Z,-4.50
2022-12-26T01:42:24.706Z,-4.50
2022-12-26T01:44:58.453Z,-4.60
2022-12-26T01:47:53.526Z,-4.50
2022-12-26T01:50:44.084Z,-4.60
2022-12-26T01:53:21.693Z,-4.60
2022-12-26T01:55:53.686Z,-4.60
2022-12-26T01:58:27.692Z,-4.70
2022-12-26T02:00:54.855Z,-4.80
2022-12-26T02:03:41.642Z,-4.80
2022-12-26T02:06:10.948Z,-4.90
2022-12-26T02:08:39.063Z,-4.90
2022-12-26T02:11:09.445Z,-5.00
2022-12-26T02:13:38.268Z,-4.90
2022-12-26T02:16:07.368Z,-5.00
2022-12-26T02:18:34.227Z,-5.00
2022-12-26T02:21:33.267Z,-5.00
2022-12-26T02:24:54.169Z,-4.90
2022-12-26T02:27:46.696Z,-4.90
2022-12-26T02:30:31.621Z,-4.70
2022-12-26T02:33:01.273Z,-4.60
2022-12-26T02:35:42.616Z,-4.60
2022-12-26T02:38:24.536Z,-4.60
2022-12-26T02:41:07.212Z,-4.60
2022-12-26T02:44:25.226Z,-4.60
2022-12-26T02:47:15.938Z,-4.50
2022-12-26T02:50:24.495Z,-4.50
2022-12-26T02:53:28.081Z,-4.50
2022-12-26T02:56:20.485Z,-4.50
2022-12-26T02:59:53.933Z,-4.40
2022-12-26T03:03:09.123Z,-4.40
2022-12-26T03:06:00.065Z,-4.30
2022-12-26T03:09:03.932Z,-4.30
2022-12-26T03:11:55.311Z,-4.30
2022-12-26T03:14:28.966Z,-4.20
2022-12-26T03:17:22.551Z,-4.20
2022-12-26T03:19:59.476Z,-4.30
2022-12-26T03:22:50.943Z,-4.20
2022-12-26T03:25:44.316Z,-4.20
2022-12-26T03:28:14.086Z,-4.20
2022-12-26T03:30:50.928Z,-4.20
2022-12-26T03:33:47.959Z,-4.20
2022-12-26T03:36:39.854Z,-4.20
2022-12-26T03:39:21.516Z,-4.20
2022-12-26T03:42:17.906Z,-4.30
2022-12-26T03:45:41.059Z,-4.30
2022-12-26T03:49:17.540Z,-4.30
2022-12-26T03:52:10.425Z,-4.30
2022-12-26T03:55:20.585Z,-4.30
2022-12-26T03:58:25.355Z,-4.30
2022-12-26T04:01:14.053Z,-4.30
2022-12-26T04:04:02.662Z,-4.30
2022-12-26T04:07:14.107Z,-4.40
2022-12-26T04:10:16.414Z,-4.30
2022-12-26T04:13:06.080Z,-4.30
2022-12-26T04:16:07.192Z,-4.30
2022-12-26T04:19:02.014Z,-4.30
2022-12-26T04:21:54.360Z,-4.30
2022-12-26T04:24:46.447Z,-4.20
2022-12-26T04:27:36.783Z,-4.20
2022-12-26T04:30:23.104Z,-4.20
2022-12-26T04:33:11.992Z,-4.20
2022-12-26T04:36:24.414Z,-4.20
2022-12-26T04:39:16.917Z,-4.30
2022-12-26T04:42:04.280Z,-4.20
2022-12-26T04:44:33.146Z,-4.20
2022-12-26T04:47:00.198Z,-4.30
2022-12-26T04:49:46.097Z,-4.20
2022-12-26T04:52:15.183Z,-4.20
2022-12-26T04:54:42.117Z,-4.20
2022-12-26T04:57:09.067Z,-4.20
2022-12-26T04:59:36.022Z,-4.30
2022-12-26T05:02:21.732Z,-4.20
2022-12-26T05:05:07.351Z,-4.20
2022-12-26T05:07:54.927Z,-4.10
2022-12-26T05:10:25.334Z,-4.10
2022-12-26T05:12:53.221Z,-4.10
2022-12-26T05:15:20.654Z,-4.10
2022-12-26T05:18:06.617Z,-4.10
2022-12-26T05:20:52.136Z,-4.00
2022-12-26T05:23:42.452Z,-4.00
2022-12-26T05:26:56.557Z,-4.00
2022-12-26T05:29:25.719Z,-4.10
2022-12-26T05:31:52.984Z,-4.10
2022-12-26T05:34:21.435Z,-4.20
2022-12-26T05:36:56.457Z,-4.20
2022-12-26T05:39:23.435Z,-4.10
2022-12-26T05:41:50.316Z,-4.20
2022-12-26T05:44:17.284Z,-4.20
2022-12-26T05:46:46.950Z,-4.20
2022-12-26T05:49:13.916Z,-4.20
2022-12-26T05:51:40.663Z,-4.30
2022-12-26T05:54:07.657Z,-4.30
2022-12-26T05:56:34.767Z,-4.30
2022-12-26T05:59:02.200Z,-4.30
2022-12-26T06:01:30.082Z,-4.30
2022-12-26T06:03:59.006Z,-4.30
2022-12-26T06:06:26.778Z,-4.30
2022-12-26T06:08:55.338Z,-4.30
2022-12-26T06:11:23.299Z,-4.30
2022-12-26T06:13:49.976Z,-4.30
2022-12-26T06:16:18.612Z,-4.30
2022-12-26T06:18:45.785Z,-4.30
2022-12-26T06:21:15.432Z,-4.30
2022-12-26T06:23:43.449Z,-4.30
2022-12-26T06:26:12.754Z,-4.30
2022-12-26T06:28:41.141Z,-4.30
2022-12-26T06:31:11.500Z,-4.30
2022-12-26T06:33:38.861Z,-4.30
2022-12-26T06:36:08.957Z,-4.20
2022-12-26T06:38:36.141Z,-4.20
2022-12-26T06:41:05.963Z,-4.20
2022-12-26T06:43:33.372Z,-4.20
2022-12-26T06:46:01.830Z,-4.10
2022-12-26T06:48:29.065Z,-4.10
2022-12-26T06:50:56.468Z,-4.10
2022-12-26T06:53:25.030Z,-4.10
2022-12-26T06:55:52.359Z,-4.10
2022-12-26T06:58:19.248Z,-4.10
2022-12-26T07:00:46.159Z,-4.10
2022-12-26T07:03:13.074Z,-4.10
2022-12-26T07:05:39.997Z,-4.10
2022-12-26T07:08:07.231Z,-4.00
2022-12-26T07:10:37.880Z,-4.00
2022-12-26T07:13:04.780Z,-3.90
2022-12-26T07:15:31.843Z,-3.90
2022-12-26T07:17:58.682Z,-3.90
2022-12-26T07:20:25.664Z,-3.80
2022-12-26T07:22:54.109Z,-3.80
2022-12-26T07:25:20.882Z,-3.80
2022-12-26T07:27:47.887Z,-3.70
2022-12-26T07:30:14.711Z,-3.60
2022-12-26T07:32:41.500Z,-3.60
2022-12-26T07:35:08.873Z,-3.50
2022-12-26T07:37:35.688Z,-3.40
2022-12-26T07:40:02.847Z,-3.40
2022-12-26T07:42:29.717Z,-3.30
2022-12-26T07:44:58.636Z,-3.30
2022-12-26T07:47:25.430Z,-3.30
2022-12-26T07:49:52.836Z,-3.20
2022-12-26T07:52:19.996Z,-3.20
2022-12-26T07:54:47.051Z,-3.10
2022-12-26T07:57:46.911Z,-3.10
2022-12-26T08:00:00.875Z,-3.10
2022-12-26T08:02:28.139Z,-3.10
2022-12-26T08:04:55.245Z,-3.10
2022-12-26T08:07:23.241Z,-3.10
2022-12-26T08:09:50.307Z,-3.10
2022-12-26T08:12:17.375Z,-3.20
2022-12-26T08:14:44.196Z,-3.20
2022-12-26T08:17:11.110Z,-3.10
2022-12-26T08:19:38.224Z,-3.10
2022-12-26T08:22:04.981Z,-3.10
2022-12-26T08:24:31.781Z,-3.00
2022-12-26T08:26:58.560Z,-3.10
2022-12-26T08:29:25.559Z,-3.10
2022-12-26T08:31:53.206Z,-3.20
2022-12-26T08:34:19.968Z,-3.20
2022-12-26T08:36:50.047Z,-3.20
2022-12-26T08:39:16.811Z,-3.00
2022-12-26T08:41:43.815Z,-3.10
2022-12-26T08:44:29.073Z,-3.10
2022-12-26T08:46:56.212Z,-3.10
2022-12-26T08:49:23.045Z,-3.10
2022-12-26T08:51:49.807Z,-3.10
2022-12-26T08:54:16.611Z,-3.00
2022-12-26T08:56:43.382Z,-3.00
2022-12-26T08:59:10.201Z,-2.90
2022-12-26T09:01:37.806Z,-2.80
2022-12-26T09:04:06.989Z,-2.80
2022-12-26T09:06:36.089Z,-2.80
2022-12-26T09:09:04.127Z,-2.70
2022-12-26T09:11:30.916Z,-2.70
2022-12-26T09:13:59.888Z,-2.70
2022-12-26T09:16:35.549Z,-2.70
2022-12-26T09:19:05.711Z,-2.70
2022-12-26T09:21:33.077Z,-2.70
2022-12-26T09:24:02.549Z,-2.80
2022-12-26T09:26:29.993Z,-2.80
2022-12-26T09:28:57.235Z,-2.80
2022-12-26T09:31:27.818Z,-2.80
2022-12-26T09:33:54.965Z,-2.70
2022-12-26T09:36:27.205Z,-2.70
2022-12-26T09:38:56.215Z,-2.60
2022-12-26T09:41:32.106Z,-2.60
2022-12-26T09:44:15.082Z,-2.60
2022-12-26T09:47:14.359Z,-2.50
2022-12-26T09:49:53.756Z,-2.50
2022-12-26T09:52:37.281Z,-2.40
2022-12-26T09:55:18.605Z,-2.40
2022-12-26T09:57:52.590Z,-2.50
2022-12-26T10:00:33.713Z,-2.50
2022-12-26T10:03:01.491Z,-2.50
2022-12-26T10:06:02.890Z,-2.50
2022-12-26T10:08:54.268Z,-2.50
2022-12-26T10:11:39.249Z,-2.50
2022-12-26T10:14:44.921Z,-2.50
2022-12-26T10:17:17.615Z,-2.50
2022-12-26T10:20:06.675Z,-2.40
2022-12-26T10:22:39.234Z,-2.40
2022-12-26T10:25:21.446Z,-2.40
2022-12-26T10:27:50.637Z,-2.40
2022-12-26T10:30:23.466Z,-2.40
2022-12-26T10:32:58.229Z,-2.40
2022-12-26T10:35:37.738Z,-2.40
2022-12-26T10:38:16.501Z,-2.40
2022-12-26T10:40:46.801Z,-2.30
2022-12-26T10:43:32.499Z,-2.30
2022-12-26T10:46:50.019Z,-2.20
2022-12-26T10:49:20.654Z,-2.10
2022-12-26T10:51:47.831Z,-2.00
2022-12-26T10:54:17.989Z,-1.90
2022-12-26T10:56:48.018Z,-1.90
2022-12-26T10:59:22.222Z,-1.80
2022-12-26T11:01:50.280Z,-1.80
2022-12-26T11:04:31.141Z,-1.90
2022-12-26T11:07:11.239Z,-1.90
2022-12-26T11:09:41.327Z,-1.90
2022-12-26T11:12:21.276Z,-1.80
2022-12-26T11:14:48.424Z,-1.70
2022-12-26T11:17:28.828Z,-1.70
2022-12-26T11:20:15.492Z,-1.70
2022-12-26T11:22:46.458Z,-1.60
2022-12-26T11:25:19.697Z,-1.50
2022-12-26T11:27:50.309Z,-1.50
2022-12-26T11:30:21.844Z,-1.40
2022-12-26T11:32:52.322Z,-1.40
2022-12-26T11:35:24.826Z,-1.30
2022-12-26T11:37:55.323Z,-1.30
2022-12-26T11:40:26.402Z,-1.10
2022-12-26T11:42:57.702Z,-1.00
2022-12-26T11:45:27.415Z,-0.90
2022-12-26T11:47:58.173Z,-0.90
2022-12-26T11:50:28.185Z,-0.90
2022-12-26T11:52:57.667Z,-0.80
2022-12-26T11:55:28.234Z,-0.80
2022-12-26T11:58:09.979Z,-0.90
2022-12-26T12:00:51.946Z,-0.80
2022-12-26T12:03:29.793Z,-0.80
2022-12-26T12:06:05.084Z,-0.80
2022-12-26T12:09:05.589Z,-0.70
2022-12-26T12:12:07.266Z,-0.70
2022-12-26T12:15:00.279Z,-0.60
2022-12-26T12:17:50.427Z,-0.50
2022-12-26T12:20:27.068Z,-0.30
2022-12-26T12:23:30.789Z,-0.30
2022-12-26T12:26:05.296Z,-0.20
2022-12-26T12:28:53.413Z,0.00
2022-12-26T12:31:48.586Z,0.10
2022-12-26T12:34:45.988Z,0.20
2022-12-26T12:37:27.843Z,0.20
2022-12-26T12:40:00.269Z,0.20
2022-12-26T12:42:29.931Z,0.10
2022-12-26T12:45:17.451Z,0.10
2022-12-26T12:48:19.513Z,0.10
2022-12-26T12:50:56.996Z,0.10
2022-12-26T12:53:41.936Z,0.10
2022-12-26T12:56:42.641Z,0.10
2022-12-26T12:59:25.428Z,0.10
2022-12-26T13:01:57.645Z,0.20
2022-12-26T13:04:34.694Z,0.30
2022-12-26T13:07:46.786Z,0.30
2022-12-26T13:10:29.314Z,0.40
2022-12-26T13:12:57.406Z,0.40
2022-12-26T13:15:30.080Z,0.50
2022-12-26T13:18:02.193Z,0.50
2022-12-26T13:20:48.608Z,0.60
2022-12-26T13:23:44.575Z,0.70
2022-12-26T13:26:22.055Z,0.80
2022-12-26T13:29:16.383Z,0.80
2022-12-26T13:31:44.348Z,0.80
2022-12-26T13:34:16.991Z,0.70
2022-12-26T13:36:49.301Z,0.70
2022-12-26T13:39:23.712Z,0.60
2022-12-26T13:42:16.815Z,0.50
2022-12-26T13:44:46.619Z,0.50
2022-12-26T13:47:36.661Z,0.50
2022-12-26T13:50:41.036Z,0.60
2022-12-26T13:53:58.215Z,0.60
2022-12-26T13:56:28.052Z,0.60
2022-12-26T13:59:19.672Z,0.60
2022-12-26T14:02:07.450Z,0.60
2022-12-26T14:05:11.085Z,0.70
2022-12-26T14:07:50.393Z,0.70
2022-12-26T14:10:40.410Z,0.90
2022-12-26T14:13:45.749Z,1.00
2022-12-26T14:16:23.496Z,1.00
2022-12-26T14:19:02.470Z,1.10
2022-12-26T14:22:07.716Z,1.10
2022-12-26T14:25:15.598Z,1.00
2022-12-26T14:28:02.629Z,0.90
2022-12-26T14:30:55.577Z,0.90
2022-12-26T14:33:26.901Z,0.80
2022-12-26T14:36:12.472Z,0.80
2022-12-26T14:38:46.446Z,0.80
2022-12-26T14:41:34.902Z,0.90
2022-12-26T14:44:33.806Z,1.00
2022-12-26T14:47:02.680Z,1.10
2022-12-26T14:49:35.891Z,1.00
2022-12-26T14:52:25.178Z,0.90
2022-12-26T14:54:53.570Z,0.90
2022-12-26T14:57:46.262Z,0.90
2022-12-26T15:00:22.156Z,0.90
2022-12-26T15:03:03.894Z,0.90
2022-12-26T15:05:38.567Z,1.00
2022-12-26T15:08:13.477Z,1.10
2022-12-26T15:10:49.423Z,1.10
2022-12-26T15:13:41.359Z,1.10
2022-12-26T15:16:21.855Z,1.00
2022-12-26T15:19:03.826Z,1.00
2022-12-26T15:21:52.898Z,1.00
2022-12-26T15:27:47.652Z,0.90
2022-12-26T15:31:03.359Z,0.90
2022-12-26T15:33:41.285Z,1.00
2022-12-26T15:36:23.458Z,1.10
2022-12-26T15:39:16.883Z,1.00
2022-12-26T15:42:16.188Z,1.00
2022-12-26T15:45:04.776Z,0.90
2022-12-26T15:47:43.974Z,0.90
2022-12-26T15:50:31.219Z,0.80
2022-12-26T15:53:00.955Z,0.80
2022-12-26T15:55:40.362Z,0.90
2022-12-26T15:58:36.665Z,0.80
2022-12-26T16:01:03.988Z,0.80
2022-12-26T16:03:41.681Z,0.70
2022-12-26T16:06:53.066Z,0.70
2022-12-26T16:09:35.052Z,0.70
2022-12-26T16:12:02.427Z,0.70
2022-12-26T16:14:29.475Z,0.70
2022-12-26T16:17:15.354Z,0.70
2022-12-26T16:19:44.728Z,0.80
2022-12-26T16:22:47.279Z,0.80
2022-12-26T16:25:21.445Z,0.90
2022-12-26T16:27:51.732Z,0.80
2022-12-26T16:30:25.708Z,0.90
2022-12-26T16:32:53.716Z,1.00
2022-12-26T16:35:42.760Z,0.90
2022-12-26T16:38:19.994Z,0.90
2022-12-26T16:40:50.332Z,1.10
2022-12-26T16:43:31.720Z,1.20
2022-12-26T16:46:03.660Z,1.20
2022-12-26T16:48:33.235Z,1.20
2022-12-26T16:51:02.692Z,1.20
2022-12-26T16:53:35.858Z,1.30
2022-12-26T16:56:24.568Z,1.40
2022-12-26T16:59:06.585Z,1.40
2022-12-26T17:01:34.942Z,1.50
2022-12-26T17:04:06.826Z,1.50
2022-12-26T17:06:37.103Z,1.50
2022-12-26T17:09:09.038Z,1.50
2022-12-26T17:11:45.332Z,1.50
2022-12-26T17:14:21.872Z,1.50
2022-12-26T17:16:57.337Z,1.50
2022-12-26T17:19:31.819Z,1.50
2022-12-26T17:22:29.837Z,1.60
2022-12-26T17:25:21.487Z,1.60
2022-12-26T17:28:15.033Z,1.60
2022-12-26T17:30:48.560Z,1.50
2022-12-26T17:33:22.632Z,1.60
2022-12-26T17:38:52.232Z,1.60
2022-12-26T17:41:19.398Z,1.50
2022-12-26T17:43:47.286Z,1.50
2022-12-26T17:46:16.163Z,1.40
2022-12-26T17:48:43.855Z,1.40
2022-12-26T17:51:18.691Z,1.40
2022-12-26T17:53:51.079Z,1.40
2022-12-26T17:56:24.250Z,1.40
2022-12-26T17:58:51.094Z,1.40
2022-12-26T18:01:21.284Z,1.40
2022-12-26T18:03:48.772Z,1.40
2022-12-26T18:06:19.883Z,1.40
2022-12-26T18:08:46.907Z,1.40
2022-12-26T18:11:14.803Z,1.40
2022-12-26T18:13:42.102Z,1.40
2022-12-26T18:16:20.357Z,1.30
2022-12-26T18:18:48.254Z,1.40
2022-12-26T18:21:16.526Z,1.40
2022-12-26T18:23:43.468Z,1.40
2022-12-26T18:26:20.231Z,1.40
2022-12-26T18:28:49.997Z,1.40
2022-12-26T18:31:17.348Z,1.40
2022-12-26T18:33:44.486Z,1.40
2022-12-26T18:36:13.452Z,1.40
2022-12-26T18:38:40.497Z,1.40
2022-12-26T18:41:07.500Z,1.40
2022-12-26T18:43:34.334Z,1.40
2022-12-26T18:46:01.893Z,1.30
2022-12-26T18:48:28.685Z,1.30
2022-12-26T18:50:55.581Z,1.20
2022-12-26T18:53:22.374Z,1.20
2022-12-26T18:55:49.260Z,1.30
2022-12-26T18:58:16.168Z,1.30
2022-12-26T19:00:42.982Z,1.20
2022-12-26T19:03:10.647Z,1.20
2022-12-26T19:05:37.692Z,1.20
2022-12-26T19:08:04.646Z,1.20
2022-12-26T19:10:34.292Z,1.10
2022-12-26T19:13:06.085Z,1.00
2022-12-26T19:15:35.186Z,1.00
2022-12-26T19:18:03.980Z,1.00
2022-12-26T19:20:30.851Z,1.00
2022-12-26T19:22:57.668Z,1.00
2022-12-26T19:25:25.874Z,1.00
2022-12-26T19:27:53.605Z,1.00
2022-12-26T19:30:21.989Z,1.00
2022-12-26T19:32:49.827Z,0.90
2022-12-26T19:35:17.702Z,0.90
2022-12-26T19:37:44.572Z,0.90
2022-12-26T19:40:13.151Z,1.00
2022-12-26T19:42:39.951Z,1.00
2022-12-26T19:45:10.213Z,1.00
2022-12-26T19:47:37.309Z,1.00
2022-12-26T19:50:06.000Z,0.90
2022-12-26T19:52:33.225Z,0.80
2022-12-26T19:55:00.115Z,0.80
2022-12-26T19:57:26.932Z,0.80
2022-12-26T19:59:53.913Z,0.70
2022-12-26T20:02:20.814Z,0.70
2022-12-26T20:04:47.840Z,0.70
2022-12-26T20:07:14.614Z,0.70
2022-12-26T20:09:41.684Z,0.80
2022-12-26T20:12:08.551Z,0.80
2022-12-26T20:14:35.860Z,0.80
2022-12-26T20:17:07.479Z,0.80
2022-12-26T20:19:35.663Z,0.70
2022-12-26T20:22:02.423Z,0.70
2022-12-26T20:24:29.254Z,0.70
2022-12-26T20:26:56.425Z,0.60
2022-12-26T20:29:23.285Z,0.60
2022-12-26T20:31:50.278Z,0.60
2022-12-26T20:34:17.513Z,0.60
2022-12-26T20:36:44.419Z,0.60
2022-12-26T20:39:14.794Z,0.60
2022-12-26T20:41:42.119Z,0.60
2022-12-26T20:44:10.182Z,0.60
2022-12-26T20:46:36.908Z,0.60
2022-12-26T20:49:04.912Z,0.60
2022-12-26T20:51:37.566Z,0.50
2022-12-26T20:54:09.478Z,0.50
2022-12-26T20:56:37.957Z,0.60
2022-12-26T20:59:06.142Z,0.60
2022-12-26T21:01:33.554Z,0.50
2022-12-26T21:04:00.712Z,0.60
2022-12-26T21:06:31.369Z,0.60
2022-12-26T21:08:58.765Z,0.50
2022-12-26T21:11:34.679Z,0.40
2022-12-26T21:14:07.931Z,0.30
2022-12-26T21:16:47.328Z,0.40
2022-12-26T21:19:15.847Z,0.50
2022-12-26T21:21:45.326Z,0.40
2022-12-26T21:24:22.166Z,0.50
2022-12-26T21:26:49.087Z,0.60
2022-12-26T21:29:20.368Z,0.60
2022-12-26T21:31:47.593Z,0.60
2022-12-26T21:34:16.912Z,0.60
2022-12-26T21:37:20.987Z,0.50
2022-12-26T21:39:49.590Z,0.40
2022-12-26T21:42:16.649Z,0.30
2022-12-26T21:44:46.586Z,0.30
2022-12-26T21:47:13.487Z,0.30
2022-12-26T21:49:40.318Z,0.20
2022-12-26T21:52:07.706Z,0.10
2022-12-26T21:54:53.161Z,0.10
2022-12-26T21:57:20.793Z,0.00
2022-12-26T21:59:56.695Z,0.10
2022-12-26T22:02:43.940Z,0.00
2022-12-26T22:05:11.378Z,0.00
2022-12-26T22:07:38.173Z,0.00
2022-12-26T22:10:06.162Z,-0.10
2022-12-26T22:12:51.477Z,-0.10
2022-12-26T22:15:37.119Z,-0.10
2022-12-26T22:18:04.113Z,-0.20
2022-12-26T22:20:30.924Z,-0.20
2022-12-26T22:22:57.769Z,-0.10
2022-12-26T22:25:24.568Z,0.00
2022-12-26T22:27:51.608Z,0.00
2022-12-26T22:30:18.463Z,0.00
2022-12-26T22:32:45.297Z,0.00
2022-12-26T22:35:18.391Z,0.00
2022-12-26T22:37:45.700Z,0.00
2022-12-26T22:40:12.844Z,0.00
2022-12-26T22:42:39.769Z,0.00
2022-12-26T22:45:07.352Z,0.00
2022-12-26T22:47:34.170Z,0.00
2022-12-26T22:50:01.145Z,-0.10
2022-12-26T22:52:28.836Z,-0.10
2022-12-26T22:54:55.672Z,0.00
2022-12-26T22:57:22.673Z,-0.10
2022-12-26T23:02:36.544Z,0.00
2022-12-26T23:05:04.137Z,0.10
2022-12-26T23:07:31.747Z,0.10
2022-12-26T23:09:59.184Z,0.20
2022-12-26T23:12:44.217Z,0.20
2022-12-26T23:15:16.885Z,0.20
2022-12-26T23:18:24.345Z,0.20
2022-12-26T23:21:11.293Z,0.20
2022-12-26T23:23:38.301Z,0.20
2022-12-26T23:26:05.323Z,0.20
2022-12-26T23:28:50.836Z,0.20
2022-12-26T23:31:17.813Z,0.20
2022-12-26T23:33:44.990Z,0.20
2022-12-26T23:36:12.331Z,0.10
2022-12-26T23:38:39.348Z,0.20
2022-12-26T23:41:06.318Z,0.10
2022-12-26T23:43:33.751Z,0.00
2022-12-26T23:46:00.875Z,-0.10
2022-12-26T23:48:27.864Z,-0.30
2022-12-26T23:51:06.788Z,-0.40
2022-12-26T23:53:34.141Z,-0.50
2022-12-26T23:56:01.047Z,-0.60
2022-12-26T23:58:28.132Z,-0.70
